sensor_id;sensor_type;location;lat;lon;timestamp;pressure;altitude;pressure_sealevel;temperature;humidity
65175;BME280;51761;42.126;24.752;2023-08-21T00:01:17;99632.69;;;25.85;54.12
65175;BME280;51761;42.126;24.752;2023-08-21T00:03:43;99635.00;;;25.92;53.97
65175;BME280;51761;42.126;24.752;2023-08-21T00:06:08;99641.44;;;26.03;56.40
65175;BME280;51761;42.126;24.752;2023-08-21T00:08:34;99648.97;;;26.06;54.80
65175;BME280;51761;42.126;24.752;2023-08-21T00:10:59;99645.84;;;26.09;54.15
65175;BME280;51761;42.126;24.752;2023-08-21T00:13:25;99643.50;;;26.08;53.70
65175;BME280;51761;42.126;24.752;2023-08-21T00:15:50;99638.31;;;26.12;53.52
65175;BME280;51761;42.126;24.752;2023-08-21T00:18:17;99647.41;;;26.10;53.36
65175;BME280;51761;42.126;24.752;2023-08-21T00:20:42;99629.25;;;25.97;53.02
65175;BME280;51761;42.126;24.752;2023-08-21T00:23:08;99656.53;;;26.09;53.25
65175;BME280;51761;42.126;24.752;2023-08-21T00:25:34;99634.19;;;26.02;52.16
65175;BME280;51761;42.126;24.752;2023-08-21T00:28:00;99633.34;;;26.12;53.40
65175;BME280;51761;42.126;24.752;2023-08-21T00:30:26;99652.06;;;26.13;52.61
65175;BME280;51761;42.126;24.752;2023-08-21T00:32:51;99633.41;;;26.01;57.01
65175;BME280;51761;42.126;24.752;2023-08-21T00:35:16;99648.94;;;26.17;55.67
65175;BME280;51761;42.126;24.752;2023-08-21T00:37:42;99660.63;;;26.19;53.51
65175;BME280;51761;42.126;24.752;2023-08-21T00:40:08;99651.50;;;26.20;54.78
65175;BME280;51761;42.126;24.752;2023-08-21T00:42:34;99649.94;;;26.19;51.92
65175;BME280;51761;42.126;24.752;2023-08-21T00:44:59;99657.28;;;26.15;52.74
65175;BME280;51761;42.126;24.752;2023-08-21T00:47:25;99642.25;;;25.98;53.85
65175;BME280;51761;42.126;24.752;2023-08-21T00:49:50;99641.50;;;25.92;54.51
65175;BME280;51761;42.126;24.752;2023-08-21T00:52:17;99656.81;;;26.05;52.66
65175;BME280;51761;42.126;24.752;2023-08-21T00:54:42;99656.56;;;25.98;52.28
65175;BME280;51761;42.126;24.752;2023-08-21T00:57:09;99650.91;;;25.76;53.91
65175;BME280;51761;42.126;24.752;2023-08-21T00:59:36;99661.34;;;25.74;54.28
65175;BME280;51761;42.126;24.752;2023-08-21T01:02:02;99651.94;;;25.79;53.16
65175;BME280;51761;42.126;24.752;2023-08-21T01:04:28;99652.53;;;25.61;52.89
65175;BME280;51761;42.126;24.752;2023-08-21T01:06:54;99656.69;;;25.65;53.33
65175;BME280;51761;42.126;24.752;2023-08-21T01:09:31;99638.50;;;25.52;53.36
65175;BME280;51761;42.126;24.752;2023-08-21T01:14:48;99639.81;;;25.51;53.25
65175;BME280;51761;42.126;24.752;2023-08-21T01:17:16;99635.16;;;25.42;52.98
65175;BME280;51761;42.126;24.752;2023-08-21T01:19:44;99662.16;;;25.58;54.69
65175;BME280;51761;42.126;24.752;2023-08-21T01:22:11;99661.13;;;25.55;53.29
65175;BME280;51761;42.126;24.752;2023-08-21T01:24:37;99651.25;;;25.51;53.32
65175;BME280;51761;42.126;24.752;2023-08-21T01:27:02;99634.16;;;25.40;52.97
65175;BME280;51761;42.126;24.752;2023-08-21T01:29:28;99653.63;;;25.47;53.07
65175;BME280;51761;42.126;24.752;2023-08-21T01:32:10;99664.25;;;25.46;53.96
65175;BME280;51761;42.126;24.752;2023-08-21T01:34:39;99661.44;;;25.41;53.49
65175;BME280;51761;42.126;24.752;2023-08-21T01:37:06;99668.44;;;25.40;56.04
65175;BME280;51761;42.126;24.752;2023-08-21T01:39:32;99651.00;;;25.38;54.91
65175;BME280;51761;42.126;24.752;2023-08-21T01:41:58;99653.09;;;25.37;54.45
65175;BME280;51761;42.126;24.752;2023-08-21T01:44:24;99660.13;;;25.36;53.55
65175;BME280;51761;42.126;24.752;2023-08-21T01:46:49;99632.59;;;25.11;53.80
65175;BME280;51761;42.126;24.752;2023-08-21T01:49:15;99655.47;;;25.22;54.04
65175;BME280;51761;42.126;24.752;2023-08-21T01:51:40;99660.16;;;25.25;53.92
65175;BME280;51761;42.126;24.752;2023-08-21T01:54:06;99656.25;;;25.17;54.12
65175;BME280;51761;42.126;24.752;2023-08-21T01:56:31;99658.06;;;25.09;54.45
65175;BME280;51761;42.126;24.752;2023-08-21T01:58:57;99640.13;;;24.92;54.79
65175;BME280;51761;42.126;24.752;2023-08-21T02:01:23;99654.69;;;25.05;54.95
65175;BME280;51761;42.126;24.752;2023-08-21T02:03:48;99640.94;;;24.93;54.79
65175;BME280;51761;42.126;24.752;2023-08-21T02:06:14;99657.28;;;25.03;54.83
65175;BME280;51761;42.126;24.752;2023-08-21T02:08:39;99652.09;;;24.96;55.38
65175;BME280;51761;42.126;24.752;2023-08-21T02:11:05;99660.16;;;24.87;55.67
65175;BME280;51761;42.126;24.752;2023-08-21T02:13:30;99652.34;;;24.93;56.88
65175;BME280;51761;42.126;24.752;2023-08-21T02:15:58;99651.81;;;25.00;54.95
65175;BME280;51761;42.126;24.752;2023-08-21T02:18:23;99650.53;;;25.01;55.43
65175;BME280;51761;42.126;24.752;2023-08-21T02:20:49;99654.19;;;25.01;56.25
65175;BME280;51761;42.126;24.752;2023-08-21T02:23:15;99654.19;;;25.01;54.97
65175;BME280;51761;42.126;24.752;2023-08-21T02:25:40;99649.50;;;24.98;54.98
65175;BME280;51761;42.126;24.752;2023-08-21T02:28:06;99652.09;;;25.02;54.86
65175;BME280;51761;42.126;24.752;2023-08-21T02:30:32;99643.25;;;25.05;54.82
65175;BME280;51761;42.126;24.752;2023-08-21T02:32:58;99647.41;;;25.04;54.91
65175;BME280;51761;42.126;24.752;2023-08-21T02:35:23;99642.72;;;25.07;56.78
65175;BME280;51761;42.126;24.752;2023-08-21T02:37:49;99637.00;;;25.12;54.90
65175;BME280;51761;42.126;24.752;2023-08-21T02:40:14;99641.16;;;25.17;61.03
65175;BME280;51761;42.126;24.752;2023-08-21T02:42:40;99644.81;;;25.17;56.00
65175;BME280;51761;42.126;24.752;2023-08-21T02:45:06;99640.66;;;25.13;54.75
65175;BME280;51761;42.126;24.752;2023-08-21T02:47:36;99649.50;;;25.26;57.64
65175;BME280;51761;42.126;24.752;2023-08-21T02:50:07;99640.16;;;25.20;55.48
65175;BME280;51761;42.126;24.752;2023-08-21T02:52:33;99652.34;;;25.31;57.17
65175;BME280;51761;42.126;24.752;2023-08-21T02:54:59;99648.44;;;25.40;53.97
65175;BME280;51761;42.126;24.752;2023-08-21T02:57:26;99648.44;;;25.34;53.52
65175;BME280;51761;42.126;24.752;2023-08-21T02:59:52;99638.81;;;25.37;53.40
65175;BME280;51761;42.126;24.752;2023-08-21T03:02:18;99621.66;;;25.15;54.49
65175;BME280;51761;42.126;24.752;2023-08-21T03:04:44;99644.31;;;25.24;53.72
65175;BME280;51761;42.126;24.752;2023-08-21T03:07:09;99639.63;;;25.27;56.12
65175;BME280;51761;42.126;24.752;2023-08-21T03:09:38;99646.38;;;25.18;55.99
65175;BME280;51761;42.126;24.752;2023-08-21T03:12:04;99638.84;;;25.10;54.61
65175;BME280;51761;42.126;24.752;2023-08-21T03:14:30;99647.41;;;25.10;56.19
65175;BME280;51761;42.126;24.752;2023-08-21T03:16:55;99647.69;;;25.17;54.72
65175;BME280;51761;42.126;24.752;2023-08-21T03:19:21;99641.16;;;25.22;56.29
65175;BME280;51761;42.126;24.752;2023-08-21T03:21:46;99651.84;;;25.22;55.34
65175;BME280;51761;42.126;24.752;2023-08-21T03:24:12;99655.75;;;25.24;55.84
65175;BME280;51761;42.126;24.752;2023-08-21T03:26:37;99641.16;;;25.17;57.99
65175;BME280;51761;42.126;24.752;2023-08-21T03:29:03;99639.09;;;25.06;56.35
65175;BME280;51761;42.126;24.752;2023-08-21T03:31:29;99630.28;;;25.10;56.60
65175;BME280;51761;42.126;24.752;2023-08-21T03:33:55;99651.03;;;25.27;56.50
65175;BME280;51761;42.126;24.752;2023-08-21T03:36:20;99640.16;;;25.20;58.84
65175;BME280;51761;42.126;24.752;2023-08-21T03:38:46;99659.13;;;25.28;55.79
65175;BME280;51761;42.126;24.752;2023-08-21T03:41:11;99658.56;;;25.30;58.38
65175;BME280;51761;42.126;24.752;2023-08-21T03:43:37;99652.34;;;25.26;55.29
65175;BME280;51761;42.126;24.752;2023-08-21T03:46:03;99653.41;;;25.28;60.09
65175;BME280;51761;42.126;24.752;2023-08-21T03:48:29;99653.41;;;25.28;57.48
65175;BME280;51761;42.126;24.752;2023-08-21T03:50:55;99640.66;;;25.13;55.00
65175;BME280;51761;42.126;24.752;2023-08-21T03:53:20;99645.63;;;25.18;54.73
65175;BME280;51761;42.126;24.752;2023-08-21T03:55:46;99638.84;;;25.04;55.80
65175;BME280;51761;42.126;24.752;2023-08-21T03:58:13;99662.22;;;25.19;55.06
65175;BME280;51761;42.126;24.752;2023-08-21T04:00:38;99654.94;;;25.24;54.66
65175;BME280;51761;42.126;24.752;2023-08-21T04:03:04;99665.59;;;25.29;55.11
65175;BME280;51761;42.126;24.752;2023-08-21T04:05:30;99651.28;;;25.12;56.98
65175;BME280;51761;42.126;24.752;2023-08-21T04:07:55;99672.63;;;25.22;55.11
65175;BME280;51761;42.126;24.752;2023-08-21T04:10:21;99668.19;;;25.21;55.99
65175;BME280;51761;42.126;24.752;2023-08-21T04:12:46;99662.47;;;25.21;55.02
65175;BME280;51761;42.126;24.752;2023-08-21T04:15:12;99664.28;;;25.30;54.37
65175;BME280;51761;42.126;24.752;2023-08-21T04:17:37;99659.63;;;25.32;54.23
65175;BME280;51761;42.126;24.752;2023-08-21T04:20:03;99659.88;;;25.34;54.49
65175;BME280;51761;42.126;24.752;2023-08-21T04:22:29;99669.75;;;25.39;54.08
65175;BME280;51761;42.126;24.752;2023-08-21T04:24:54;99667.66;;;25.39;53.56
65175;BME280;51761;42.126;24.752;2023-08-21T04:27:19;99667.91;;;25.36;54.87
65175;BME280;51761;42.126;24.752;2023-08-21T04:29:45;99673.88;;;25.43;53.92
65175;BME280;51761;42.126;24.752;2023-08-21T04:32:10;99646.88;;;25.39;53.79
65175;BME280;51761;42.126;24.752;2023-08-21T04:34:37;99645.84;;;25.42;53.38
65175;BME280;51761;42.126;24.752;2023-08-21T04:37:02;99675.16;;;25.64;53.52
65175;BME280;51761;42.126;24.752;2023-08-21T04:39:29;99669.94;;;25.63;52.93
65175;BME280;51761;42.126;24.752;2023-08-21T04:41:55;99651.00;;;25.54;53.67
65175;BME280;51761;42.126;24.752;2023-08-21T04:44:20;99664.72;;;25.72;52.67
65175;BME280;51761;42.126;24.752;2023-08-21T04:46:48;99663.69;;;25.70;52.42
65175;BME280;51761;42.126;24.752;2023-08-21T04:49:15;99674.84;;;25.84;52.05
65175;BME280;51761;42.126;24.752;2023-08-21T04:51:41;99672.75;;;25.79;52.61
65175;BME280;51761;42.126;24.752;2023-08-21T04:54:06;99685.75;;;25.91;53.00
65175;BME280;51761;42.126;24.752;2023-08-21T04:56:32;99687.75;;;26.07;54.37
65175;BME280;51761;42.126;24.752;2023-08-21T04:58:57;99688.72;;;26.20;51.83
65175;BME280;51761;42.126;24.752;2023-08-21T05:01:23;99672.50;;;26.34;51.57
65175;BME280;51761;42.126;24.752;2023-08-21T05:03:50;99674.53;;;26.44;51.91
65175;BME280;51761;42.126;24.752;2023-08-21T05:06:15;99676.59;;;26.55;52.03
65175;BME280;51761;42.126;24.752;2023-08-21T05:08:41;99674.75;;;26.57;51.24
65175;BME280;51761;42.126;24.752;2023-08-21T05:11:06;99691.03;;;26.73;51.64
65175;BME280;51761;42.126;24.752;2023-08-21T05:13:32;99682.66;;;26.81;52.50
65175;BME280;51761;42.126;24.752;2023-08-21T05:15:58;99685.94;;;26.96;54.99
65175;BME280;51761;42.126;24.752;2023-08-21T05:18:24;99672.81;;;27.11;52.23
65175;BME280;51761;42.126;24.752;2023-08-21T05:20:54;99690.09;;;27.30;50.56
65175;BME280;51761;42.126;24.752;2023-08-21T05:23:20;99686.28;;;27.46;50.05
65175;BME280;51761;42.126;24.752;2023-08-21T05:25:46;99692.41;;;27.61;51.52
65175;BME280;51761;42.126;24.752;2023-08-21T05:28:13;99695.72;;;27.70;48.83
65175;BME280;51761;42.126;24.752;2023-08-21T05:30:38;99674.34;;;27.65;49.59
65175;BME280;51761;42.126;24.752;2023-08-21T05:33:04;99701.56;;;27.83;48.04
65175;BME280;51761;42.126;24.752;2023-08-21T05:35:36;99695.16;;;27.95;48.35
65175;BME280;51761;42.126;24.752;2023-08-21T05:38:02;99690.34;;;28.03;48.49
65175;BME280;51761;42.126;24.752;2023-08-21T05:40:28;99681.19;;;28.05;47.76
65175;BME280;51761;42.126;24.752;2023-08-21T05:42:54;99692.63;;;28.29;47.84
65175;BME280;51761;42.126;24.752;2023-08-21T05:45:19;99683.22;;;28.28;48.86
65175;BME280;51761;42.126;24.752;2023-08-21T05:47:45;99698.00;;;28.56;47.36
65175;BME280;51761;42.126;24.752;2023-08-21T05:50:10;99698.31;;;28.71;47.20
65175;BME280;51761;42.126;24.752;2023-08-21T05:52:36;99699.88;;;28.91;46.40
65175;BME280;51761;42.126;24.752;2023-08-21T05:55:01;99699.53;;;29.13;46.27
65175;BME280;51761;42.126;24.752;2023-08-21T05:57:27;99712.09;;;29.41;45.44
65175;BME280;51761;42.126;24.752;2023-08-21T05:59:52;99688.91;;;29.52;44.19
65175;BME280;51761;42.126;24.752;2023-08-21T06:02:17;99697.34;;;29.89;43.50
65175;BME280;51761;42.126;24.752;2023-08-21T06:04:43;99700.03;;;30.13;42.93
65175;BME280;51761;42.126;24.752;2023-08-21T06:07:09;99707.19;;;30.32;42.47
65175;BME280;51761;42.126;24.752;2023-08-21T06:09:35;99702.84;;;30.52;41.37
65175;BME280;51761;42.126;24.752;2023-08-21T06:12:02;99689.78;;;30.64;41.05
65175;BME280;51761;42.126;24.752;2023-08-21T06:14:28;99696.41;;;30.92;40.78
65175;BME280;51761;42.126;24.752;2023-08-21T06:16:57;99709.53;;;31.13;39.94
65175;BME280;51761;42.126;24.752;2023-08-21T06:19:23;99691.81;;;31.30;39.55
65175;BME280;51761;42.126;24.752;2023-08-21T06:21:48;99701.50;;;31.60;38.46
65175;BME280;51761;42.126;24.752;2023-08-21T06:24:14;99711.13;;;32.11;37.59
65175;BME280;51761;42.126;24.752;2023-08-21T06:26:40;99712.00;;;32.62;36.92
65175;BME280;51761;42.126;24.752;2023-08-21T06:29:05;99711.41;;;33.44;35.47
65175;BME280;51761;42.126;24.752;2023-08-21T06:31:31;99721.88;;;34.61;33.94
65175;BME280;51761;42.126;24.752;2023-08-21T06:33:56;99717.06;;;35.59;32.39
65175;BME280;51761;42.126;24.752;2023-08-21T06:36:22;99721.59;;;35.94;30.65
65175;BME280;51761;42.126;24.752;2023-08-21T06:38:48;99711.44;;;36.03;30.20
65175;BME280;51761;42.126;24.752;2023-08-21T06:41:13;99727.94;;;36.85;28.89
65175;BME280;51761;42.126;24.752;2023-08-21T06:43:39;99713.03;;;36.98;28.49
65175;BME280;51761;42.126;24.752;2023-08-21T06:46:05;99720.94;;;37.41;28.02
65175;BME280;51761;42.126;24.752;2023-08-21T06:48:30;99716.09;;;37.89;27.28
65175;BME280;51761;42.126;24.752;2023-08-21T06:50:56;99718.38;;;38.35;26.68
65175;BME280;51761;42.126;24.752;2023-08-21T06:53:22;99730.03;;;38.54;26.58
65175;BME280;51761;42.126;24.752;2023-08-21T06:55:47;99729.44;;;38.75;26.32
65175;BME280;51761;42.126;24.752;2023-08-21T06:58:13;99739.72;;;38.57;26.49
65175;BME280;51761;42.126;24.752;2023-08-21T07:00:39;99720.78;;;38.29;26.96
65175;BME280;51761;42.126;24.752;2023-08-21T07:03:04;99735.97;;;38.18;26.92
65175;BME280;51761;42.126;24.752;2023-08-21T07:05:33;99738.16;;;37.73;26.76
65175;BME280;51761;42.126;24.752;2023-08-21T07:07:59;99733.50;;;37.70;27.40
65175;BME280;51761;42.126;24.752;2023-08-21T07:10:24;99711.97;;;37.46;27.04
65175;BME280;51761;42.126;24.752;2023-08-21T07:12:50;99711.66;;;37.88;26.84
65175;BME280;51761;42.126;24.752;2023-08-21T07:15:15;99719.13;;;38.45;26.18
65175;BME280;51761;42.126;24.752;2023-08-21T07:17:41;99726.28;;;38.25;26.98
65175;BME280;51761;42.126;24.752;2023-08-21T07:20:07;99728.66;;;38.74;26.41
65175;BME280;51761;42.126;24.752;2023-08-21T07:22:33;99723.72;;;38.67;26.35
65175;BME280;51761;42.126;24.752;2023-08-21T07:24:58;99722.31;;;38.30;26.67
65175;BME280;51761;42.126;24.752;2023-08-21T07:27:26;99716.00;;;39.19;25.40
65175;BME280;51761;42.126;24.752;2023-08-21T07:29:51;99715.13;;;38.88;25.88
65175;BME280;51761;42.126;24.752;2023-08-21T07:32:17;99724.78;;;39.00;25.50
65175;BME280;51761;42.126;24.752;2023-08-21T07:34:42;99711.06;;;39.12;24.86
65175;BME280;51761;42.126;24.752;2023-08-21T07:37:08;99718.56;;;39.34;24.88
65175;BME280;51761;42.126;24.752;2023-08-21T07:39:37;99711.41;;;39.87;23.86
65175;BME280;51761;42.126;24.752;2023-08-21T07:42:02;99717.13;;;39.85;24.43
65175;BME280;51761;42.126;24.752;2023-08-21T07:44:28;99722.28;;;39.65;24.40
65175;BME280;51761;42.126;24.752;2023-08-21T07:46:53;99720.34;;;39.89;24.75
65175;BME280;51761;42.126;24.752;2023-08-21T07:49:19;99716.56;;;39.97;24.01
65175;BME280;51761;42.126;24.752;2023-08-21T07:51:44;99713.38;;;39.94;24.35
65175;BME280;51761;42.126;24.752;2023-08-21T07:54:10;99710.19;;;40.31;24.04
65175;BME280;51761;42.126;24.752;2023-08-21T07:56:36;99714.69;;;40.86;22.24
65175;BME280;51761;42.126;24.752;2023-08-21T07:59:02;99695.97;;;40.58;22.73
65175;BME280;51761;42.126;24.752;2023-08-21T08:01:28;99706.50;;;40.10;23.34
65175;BME280;51761;42.126;24.752;2023-08-21T08:03:54;99712.56;;;39.72;24.53
65175;BME280;51761;42.126;24.752;2023-08-21T08:06:19;99693.28;;;39.79;23.58
65175;BME280;51761;42.126;24.752;2023-08-21T08:08:45;99702.56;;;39.75;23.94
65175;BME280;51761;42.126;24.752;2023-08-21T08:11:11;99705.09;;;39.50;23.78
65175;BME280;51761;42.126;24.752;2023-08-21T08:13:36;99694.41;;;39.95;23.39
65175;BME280;51761;42.126;24.752;2023-08-21T08:16:02;99699.56;;;39.85;23.43
65175;BME280;51761;42.126;24.752;2023-08-21T08:18:28;99685.88;;;40.29;22.94
65175;BME280;51761;42.126;24.752;2023-08-21T08:20:53;99695.22;;;40.16;23.39
65175;BME280;51761;42.126;24.752;2023-08-21T08:23:20;99690.47;;;39.60;23.79
65175;BME280;51761;42.126;24.752;2023-08-21T08:25:45;99682.13;;;39.66;24.11
65175;BME280;51761;42.126;24.752;2023-08-21T08:28:11;99681.94;;;39.94;23.18
65175;BME280;51761;42.126;24.752;2023-08-21T08:30:36;99680.72;;;40.39;23.21
65175;BME280;51761;42.126;24.752;2023-08-21T08:33:02;99679.63;;;40.02;23.18
65175;BME280;51761;42.126;24.752;2023-08-21T08:35:27;99680.44;;;40.35;22.66
65175;BME280;51761;42.126;24.752;2023-08-21T08:37:53;99676.50;;;40.95;22.68
65175;BME280;51761;42.126;24.752;2023-08-21T08:40:18;99673.81;;;40.55;22.81
65175;BME280;51761;42.126;24.752;2023-08-21T08:42:44;99674.63;;;40.79;22.44
65175;BME280;51761;42.126;24.752;2023-08-21T08:45:12;99676.59;;;40.53;22.48
65175;BME280;51761;42.126;24.752;2023-08-21T08:47:40;99647.66;;;40.80;22.72
65175;BME280;51761;42.126;24.752;2023-08-21T08:50:06;99659.28;;;40.57;22.37
65175;BME280;51761;42.126;24.752;2023-08-21T08:52:38;99656.50;;;40.92;22.36
65175;BME280;51761;42.126;24.752;2023-08-21T08:55:05;99663.19;;;41.27;21.81
65175;BME280;51761;42.126;24.752;2023-08-21T08:57:34;99631.94;;;40.64;22.47
65175;BME280;51761;42.126;24.752;2023-08-21T09:00:00;99653.97;;;40.98;23.02
65175;BME280;51761;42.126;24.752;2023-08-21T09:02:26;99639.69;;;41.04;22.16
65175;BME280;51761;42.126;24.752;2023-08-21T09:04:52;99653.19;;;40.86;22.29
65175;BME280;51761;42.126;24.752;2023-08-21T09:07:18;99652.44;;;40.97;22.66
65175;BME280;51761;42.126;24.752;2023-08-21T09:09:48;99651.59;;;40.73;22.63
65175;BME280;51761;42.126;24.752;2023-08-21T09:12:18;99649.84;;;40.47;22.74
65175;BME280;51761;42.126;24.752;2023-08-21T09:14:44;99649.81;;;40.80;21.64
65175;BME280;51761;42.126;24.752;2023-08-21T09:17:11;99650.69;;;41.15;21.76
65175;BME280;51761;42.126;24.752;2023-08-21T09:19:37;99639.09;;;41.40;21.11
65175;BME280;51761;42.126;24.752;2023-08-21T09:22:15;99643.16;;;41.23;21.62
65175;BME280;51761;42.126;24.752;2023-08-21T09:25:08;99631.66;;;40.93;21.91
65175;BME280;51761;42.126;24.752;2023-08-21T09:27:39;99609.50;;;40.57;22.00
65175;BME280;51761;42.126;24.752;2023-08-21T09:30:05;99613.56;;;40.52;22.79
65175;BME280;51761;42.126;24.752;2023-08-21T09:32:52;99615.84;;;40.86;21.99
65175;BME280;51761;42.126;24.752;2023-08-21T09:35:19;99579.78;;;40.40;22.33
65175;BME280;51761;42.126;24.752;2023-08-21T09:37:46;99614.47;;;40.99;21.47
65175;BME280;51761;42.126;24.752;2023-08-21T09:40:12;99609.53;;;41.13;21.61
65175;BME280;51761;42.126;24.752;2023-08-21T09:42:39;99602.50;;;41.18;21.68
65175;BME280;51761;42.126;24.752;2023-08-21T09:45:06;99597.53;;;40.86;22.24
65175;BME280;51761;42.126;24.752;2023-08-21T09:47:32;99580.91;;;40.35;22.48
65175;BME280;51761;42.126;24.752;2023-08-21T09:49:59;99581.34;;;40.20;22.65
65175;BME280;51761;42.126;24.752;2023-08-21T09:52:25;99574.34;;;40.13;23.62
65175;BME280;51761;42.126;24.752;2023-08-21T09:54:53;99577.78;;;40.54;22.03
65175;BME280;51761;42.126;24.752;2023-08-21T09:57:21;99582.53;;;40.59;21.75
65175;BME280;51761;42.126;24.752;2023-08-21T09:59:51;99587.16;;;40.41;22.23
65175;BME280;51761;42.126;24.752;2023-08-21T10:02:17;99583.53;;;39.98;22.06
65175;BME280;51761;42.126;24.752;2023-08-21T10:04:45;99543.34;;;39.06;23.03
65175;BME280;51761;42.126;24.752;2023-08-21T10:07:11;99579.56;;;39.12;23.43
65175;BME280;51761;42.126;24.752;2023-08-21T10:09:40;99574.78;;;39.26;23.64
65175;BME280;51761;42.126;24.752;2023-08-21T10:12:09;99577.47;;;39.64;23.14
65175;BME280;51761;42.126;24.752;2023-08-21T10:14:35;99569.31;;;39.84;23.27
65175;BME280;51761;42.126;24.752;2023-08-21T10:17:02;99571.00;;;40.07;22.31
65175;BME280;51761;42.126;24.752;2023-08-21T10:19:31;99560.81;;;39.46;22.62
65175;BME280;51761;42.126;24.752;2023-08-21T10:21:57;99557.50;;;39.61;22.69
65175;BME280;51761;42.126;24.752;2023-08-21T10:24:35;99550.91;;;40.02;21.92
65175;BME280;51761;42.126;24.752;2023-08-21T10:27:06;99562.34;;;40.09;22.05
65175;BME280;51761;42.126;24.752;2023-08-21T10:29:32;99539.00;;;39.68;22.01
65175;BME280;51761;42.126;24.752;2023-08-21T10:32:02;99532.06;;;39.21;22.20
65175;BME280;51761;42.126;24.752;2023-08-21T10:34:33;99553.09;;;38.89;23.05
65175;BME280;51761;42.126;24.752;2023-08-21T10:37:06;99550.38;;;38.72;23.86
65175;BME280;51761;42.126;24.752;2023-08-21T10:39:32;99547.97;;;38.59;23.48
65175;BME280;51761;42.126;24.752;2023-08-21T10:42:10;99544.66;;;37.97;24.00
65175;BME280;51761;42.126;24.752;2023-08-21T10:49:56;99517.22;;;37.90;24.12
65175;BME280;51761;42.126;24.752;2023-08-21T10:52:27;99537.00;;;38.11;24.06
65175;BME280;51761;42.126;24.752;2023-08-21T10:54:57;99522.41;;;38.79;22.93
65175;BME280;51761;42.126;24.752;2023-08-21T10:57:24;99529.28;;;39.23;22.41
65175;BME280;51761;42.126;24.752;2023-08-21T11:02:16;99520.72;;;39.79;22.06
65175;BME280;51761;42.126;24.752;2023-08-21T11:04:42;99516.78;;;39.74;22.22
65175;BME280;51761;42.126;24.752;2023-08-21T11:07:09;99539.50;;;39.34;22.51
65175;BME280;51761;42.126;24.752;2023-08-21T11:09:36;99540.00;;;39.30;22.21
65175;BME280;51761;42.126;24.752;2023-08-21T11:12:13;99539.16;;;39.39;22.53
65175;BME280;51761;42.126;24.752;2023-08-21T11:14:39;99537.28;;;40.06;21.82
65175;BME280;51761;42.126;24.752;2023-08-21T11:17:06;99535.41;;;40.11;21.78
65175;BME280;51761;42.126;24.752;2023-08-21T11:19:33;99515.19;;;39.94;21.92
65175;BME280;51761;42.126;24.752;2023-08-21T11:21:59;99525.81;;;39.78;21.33
65175;BME280;51761;42.126;24.752;2023-08-21T11:24:39;99518.72;;;39.81;21.64
65175;BME280;51761;42.126;24.752;2023-08-21T11:27:05;99520.09;;;39.17;21.96
65175;BME280;51761;42.126;24.752;2023-08-21T11:29:38;99527.19;;;38.74;22.35
65175;BME280;51761;42.126;24.752;2023-08-21T11:32:08;99531.25;;;38.41;22.46
65175;BME280;51761;42.126;24.752;2023-08-21T11:34:34;99533.28;;;38.38;22.86
65175;BME280;51761;42.126;24.752;2023-08-21T11:37:00;99531.94;;;38.02;23.17
65175;BME280;51761;42.126;24.752;2023-08-21T11:39:25;99520.41;;;37.85;23.80
65175;BME280;51761;42.126;24.752;2023-08-21T11:41:58;99527.16;;;37.87;24.31
65175;BME280;51761;42.126;24.752;2023-08-21T11:44:24;99523.34;;;37.94;23.64
65175;BME280;51761;42.126;24.752;2023-08-21T11:46:51;99507.22;;;37.65;23.66
65175;BME280;51761;42.126;24.752;2023-08-21T11:49:18;99517.19;;;37.62;23.93
65175;BME280;51761;42.126;24.752;2023-08-21T11:51:45;99523.91;;;37.45;23.90
65175;BME280;51761;42.126;24.752;2023-08-21T11:54:11;99516.88;;;37.48;24.19
65175;BME280;51761;42.126;24.752;2023-08-21T11:56:38;99512.53;;;37.30;24.83
65175;BME280;51761;42.126;24.752;2023-08-21T11:59:04;99521.56;;;37.25;23.83
65175;BME280;51761;42.126;24.752;2023-08-21T12:01:34;99512.81;;;37.25;24.47
65175;BME280;51761;42.126;24.752;2023-08-21T12:03:59;99511.72;;;37.11;24.12
65175;BME280;51761;42.126;24.752;2023-08-21T12:06:25;99514.63;;;37.01;24.93
65175;BME280;51761;42.126;24.752;2023-08-21T12:08:52;99486.41;;;37.04;23.72
65175;BME280;51761;42.126;24.752;2023-08-21T12:11:18;99513.25;;;37.21;23.74
65175;BME280;51761;42.126;24.752;2023-08-21T12:13:43;99492.28;;;37.23;24.17
65175;BME280;51761;42.126;24.752;2023-08-21T12:16:09;99508.06;;;37.39;24.19
65175;BME280;51761;42.126;24.752;2023-08-21T12:18:34;99491.81;;;37.26;24.19
65175;BME280;51761;42.126;24.752;2023-08-21T12:21:00;99496.72;;;37.24;24.23
65175;BME280;51761;42.126;24.752;2023-08-21T12:23:25;99497.03;;;37.28;24.26
65175;BME280;51761;42.126;24.752;2023-08-21T12:25:51;99497.66;;;37.36;23.51
65175;BME280;51761;42.126;24.752;2023-08-21T12:28:17;99492.31;;;37.32;24.03
65175;BME280;51761;42.126;24.752;2023-08-21T12:30:42;99489.38;;;37.42;23.60
65175;BME280;51761;42.126;24.752;2023-08-21T12:33:08;99485.56;;;37.39;24.26
65175;BME280;51761;42.126;24.752;2023-08-21T12:35:33;99484.50;;;37.54;24.11
65175;BME280;51761;42.126;24.752;2023-08-21T12:37:59;99491.56;;;37.98;24.40
65175;BME280;51761;42.126;24.752;2023-08-21T12:40:30;99478.25;;;38.44;23.92
65175;BME280;51761;42.126;24.752;2023-08-21T12:42:56;99475.44;;;38.96;22.99
65175;BME280;51761;42.126;24.752;2023-08-21T12:45:22;99473.78;;;39.14;22.86
65175;BME280;51761;42.126;24.752;2023-08-21T12:47:47;99473.25;;;39.27;22.82
65175;BME280;51761;42.126;24.752;2023-08-21T12:50:13;99466.94;;;39.72;22.16
65175;BME280;51761;42.126;24.752;2023-08-21T12:52:38;99458.09;;;39.93;22.33
65175;BME280;51761;42.126;24.752;2023-08-21T12:55:06;99466.19;;;40.04;21.94
65175;BME280;51761;42.126;24.752;2023-08-21T12:57:32;99456.94;;;40.30;21.20